sensor_id;sensor_type;location;lat;lon;timestamp;P1;durP1;ratioP1;P2;durP2;ratioP2
1693;SDS011;71975;47.068;15.408;2024-01-06T00:00:55;7.47;;;6.70;;
1693;SDS011;71975;47.068;15.408;2024-01-06T00:05:59;12.30;;;6.50;;
1693;SDS011;71975;47.068;15.408;2024-01-06T00:11:03;6.47;;;5.53;;
1693;SDS011;71975;47.068;15.408;2024-01-06T00:16:06;9.40;;;5.90;;
1693;SDS011;71975;47.068;15.408;2024-01-06T00:21:10;10.63;;;7.83;;
1693;SDS011;71975;47.068;15.408;2024-01-06T00:26:13;7.40;;;6.13;;
1693;SDS011;71975;47.068;15.408;2024-01-06T00:31:16;10.63;;;7.00;;
1693;SDS011;71975;47.068;15.408;2024-01-06T00:36:21;8.33;;;6.27;;
1693;SDS011;71975;47.068;15.408;2024-01-06T00:41:24;7.57;;;5.83;;
1693;SDS011;71975;47.068;15.408;2024-01-06T00:46:27;8.23;;;6.33;;
1693;SDS011;71975;47.068;15.408;2024-01-06T00:51:31;8.40;;;5.70;;
1693;SDS011;71975;47.068;15.408;2024-01-06T00:56:38;9.83;;;6.60;;
1693;SDS011;71975;47.068;15.408;2024-01-06T01:01:43;8.47;;;6.80;;
1693;SDS011;71975;47.068;15.408;2024-01-06T01:06:47;9.23;;;6.70;;
1693;SDS011;71975;47.068;15.408;2024-01-06T01:11:51;5.90;;;5.30;;
1693;SDS011;71975;47.068;15.408;2024-01-06T01:16:54;7.07;;;5.93;;
1693;SDS011;71975;47.068;15.408;2024-01-06T01:21:58;6.30;;;5.20;;
1693;SDS011;71975;47.068;15.408;2024-01-06T01:27:01;10.37;;;5.77;;
1693;SDS011;71975;47.068;15.408;2024-01-06T01:32:05;9.07;;;6.37;;
1693;SDS011;71975;47.068;15.408;2024-01-06T01:37:10;6.93;;;6.23;;
1693;SDS011;71975;47.068;15.408;2024-01-06T01:42:13;7.57;;;5.20;;
1693;SDS011;71975;47.068;15.408;2024-01-06T01:47:16;6.70;;;5.80;;
1693;SDS011;71975;47.068;15.408;2024-01-06T01:52:21;10.90;;;6.40;;
1693;SDS011;71975;47.068;15.408;2024-01-06T01:57:24;7.63;;;5.50;;
1693;SDS011;71975;47.068;15.408;2024-01-06T02:02:27;11.93;;;6.70;;
1693;SDS011;71975;47.068;15.408;2024-01-06T02:07:32;11.13;;;6.07;;
1693;SDS011;71975;47.068;15.408;2024-01-06T02:12:35;6.30;;;5.60;;
1693;SDS011;71975;47.068;15.408;2024-01-06T02:17:38;12.30;;;5.97;;
1693;SDS011;71975;47.068;15.408;2024-01-06T02:22:43;8.70;;;5.53;;
1693;SDS011;71975;47.068;15.408;2024-01-06T02:27:46;8.70;;;5.30;;
1693;SDS011;71975;47.068;15.408;2024-01-06T02:32:49;7.27;;;4.87;;
1693;SDS011;71975;47.068;15.408;2024-01-06T02:37:53;9.33;;;5.67;;
1693;SDS011;71975;47.068;15.408;2024-01-06T02:42:56;7.87;;;5.23;;
1693;SDS011;71975;47.068;15.408;2024-01-06T02:47:59;10.80;;;6.63;;
1693;SDS011;71975;47.068;15.408;2024-01-06T02:53:04;8.50;;;5.20;;
1693;SDS011;71975;47.068;15.408;2024-01-06T02:58:07;8.20;;;5.70;;
1693;SDS011;71975;47.068;15.408;2024-01-06T03:03:10;6.83;;;5.37;;
1693;SDS011;71975;47.068;15.408;2024-01-06T03:08:14;8.53;;;4.83;;
1693;SDS011;71975;47.068;15.408;2024-01-06T03:13:17;6.77;;;5.50;;
1693;SDS011;71975;47.068;15.408;2024-01-06T03:18:20;8.50;;;4.80;;
1693;SDS011;71975;47.068;15.408;2024-01-06T03:23:24;6.60;;;5.00;;
1693;SDS011;71975;47.068;15.408;2024-01-06T03:28:27;8.17;;;7.47;;
1693;SDS011;71975;47.068;15.408;2024-01-06T03:33:30;5.33;;;4.70;;
1693;SDS011;71975;47.068;15.408;2024-01-06T03:38:35;7.60;;;5.80;;
1693;SDS011;71975;47.068;15.408;2024-01-06T03:43:38;6.47;;;5.80;;
1693;SDS011;71975;47.068;15.408;2024-01-06T03:48:41;6.00;;;4.50;;
1693;SDS011;71975;47.068;15.408;2024-01-06T03:53:45;5.37;;;4.80;;
1693;SDS011;71975;47.068;15.408;2024-01-06T03:58:48;5.63;;;4.70;;
1693;SDS011;71975;47.068;15.408;2024-01-06T04:03:51;8.90;;;5.50;;
1693;SDS011;71975;47.068;15.408;2024-01-06T04:08:55;5.93;;;5.33;;
1693;SDS011;71975;47.068;15.408;2024-01-06T04:13:58;6.60;;;5.30;;
1693;SDS011;71975;47.068;15.408;2024-01-06T04:19:01;7.73;;;5.00;;
1693;SDS011;71975;47.068;15.408;2024-01-06T04:24:05;6.80;;;5.43;;
1693;SDS011;71975;47.068;15.408;2024-01-06T04:29:09;8.17;;;6.07;;
1693;SDS011;71975;47.068;15.408;2024-01-06T04:34:12;5.67;;;4.53;;
1693;SDS011;71975;47.068;15.408;2024-01-06T04:39:17;9.83;;;6.00;;
1693;SDS011;71975;47.068;15.408;2024-01-06T04:44:20;6.37;;;5.00;;
1693;SDS011;71975;47.068;15.408;2024-01-06T04:49:23;7.13;;;5.17;;
1693;SDS011;71975;47.068;15.408;2024-01-06T04:54:27;6.40;;;5.03;;
1693;SDS011;71975;47.068;15.408;2024-01-06T04:59:30;6.80;;;5.03;;
1693;SDS011;71975;47.068;15.408;2024-01-06T05:04:33;9.17;;;5.53;;
1693;SDS011;71975;47.068;15.408;2024-01-06T05:09:37;8.50;;;6.50;;
1693;SDS011;71975;47.068;15.408;2024-01-06T05:14:40;6.77;;;4.90;;
1693;SDS011;71975;47.068;15.408;2024-01-06T05:19:43;8.03;;;6.10;;
1693;SDS011;71975;47.068;15.408;2024-01-06T05:24:48;5.93;;;4.67;;
1693;SDS011;71975;47.068;15.408;2024-01-06T05:29:54;24.03;;;14.20;;
1693;SDS011;71975;47.068;15.408;2024-01-06T05:34:57;7.37;;;5.93;;
1693;SDS011;71975;47.068;15.408;2024-01-06T05:40:02;7.90;;;5.80;;
1693;SDS011;71975;47.068;15.408;2024-01-06T05:45:07;7.83;;;6.57;;
1693;SDS011;71975;47.068;15.408;2024-01-06T17:43:09;1.77;;;1.00;;
1693;SDS011;71975;47.068;15.408;2024-01-06T17:48:13;1.00;;;0.90;;
1693;SDS011;71975;47.068;15.408;2024-01-06T17:53:17;1.30;;;1.00;;
1693;SDS011;71975;47.068;15.408;2024-01-06T17:58:21;1.10;;;1.00;;
1693;SDS011;71975;47.068;15.408;2024-01-06T18:03:24;1.33;;;0.90;;
1693;SDS011;71975;47.068;15.408;2024-01-06T18:08:27;0.60;;;0.50;;
1693;SDS011;71975;47.068;15.408;2024-01-06T18:13:31;1.27;;;0.67;;
1693;SDS011;71975;47.068;15.408;2024-01-06T18:18:34;4.30;;;2.77;;
1693;SDS011;71975;47.068;15.408;2024-01-06T18:23:37;1.00;;;0.70;;
1693;SDS011;71975;47.068;15.408;2024-01-06T18:28:41;1.83;;;1.00;;
1693;SDS011;71975;47.068;15.408;2024-01-06T18:33:45;2.50;;;1.67;;
1693;SDS011;71975;47.068;15.408;2024-01-06T18:38:49;1.00;;;0.90;;
1693;SDS011;71975;47.068;15.408;2024-01-06T18:43:53;1.90;;;1.30;;
1693;SDS011;71975;47.068;15.408;2024-01-06T18:48:57;0.80;;;0.50;;
1693;SDS011;71975;47.068;15.408;2024-01-06T18:54:00;1.13;;;0.80;;
1693;SDS011;71975;47.068;15.408;2024-01-06T18:59:04;2.30;;;0.83;;
1693;SDS011;71975;47.068;15.408;2024-01-06T19:04:09;0.60;;;0.40;;
1693;SDS011;71975;47.068;15.408;2024-01-06T19:09:12;1.87;;;1.00;;
1693;SDS011;71975;47.068;15.408;2024-01-06T19:14:16;1.43;;;1.10;;
1693;SDS011;71975;47.068;15.408;2024-01-06T19:19:19;0.80;;;0.60;;
1693;SDS011;71975;47.068;15.408;2024-01-06T19:24:23;2.00;;;0.93;;
1693;SDS011;71975;47.068;15.408;2024-01-06T19:29:37;0.97;;;0.70;;
1693;SDS011;71975;47.068;15.408;2024-01-06T19:34:44;0.70;;;0.43;;
1693;SDS011;71975;47.068;15.408;2024-01-06T19:39:50;0.90;;;0.80;;
1693;SDS011;71975;47.068;15.408;2024-01-06T19:44:55;1.10;;;0.50;;
1693;SDS011;71975;47.068;15.408;2024-01-06T19:49:58;1.47;;;0.87;;
1693;SDS011;71975;47.068;15.408;2024-01-06T19:55:01;0.90;;;0.80;;
1693;SDS011;71975;47.068;15.408;2024-01-06T20:00:07;1.10;;;0.80;;
1693;SDS011;71975;47.068;15.408;2024-01-06T20:05:11;4.40;;;1.93;;
1693;SDS011;71975;47.068;15.408;2024-01-06T20:10:14;2.33;;;1.20;;
1693;SDS011;71975;47.068;15.408;2024-01-06T20:15:18;6.03;;;2.07;;
1693;SDS011;71975;47.068;15.408;2024-01-06T20:20:21;2.73;;;1.60;;
1693;SDS011;71975;47.068;15.408;2024-01-06T20:25:24;3.03;;;1.50;;
1693;SDS011;71975;47.068;15.408;2024-01-06T20:30:28;0.70;;;0.60;;
1693;SDS011;71975;47.068;15.408;2024-01-06T20:35:32;0.90;;;0.60;;
1693;SDS011;71975;47.068;15.408;2024-01-06T20:40:36;3.40;;;2.37;;
1693;SDS011;71975;47.068;15.408;2024-01-06T20:45:40;2.30;;;0.80;;
1693;SDS011;71975;47.068;15.408;2024-01-06T20:50:45;0.70;;;0.50;;
1693;SDS011;71975;47.068;15.408;2024-01-06T20:55:49;1.00;;;0.77;;
1693;SDS011;71975;47.068;15.408;2024-01-06T21:00:53;1.97;;;1.10;;
1693;SDS011;71975;47.068;15.408;2024-01-06T21:05:56;1.27;;;0.70;;
1693;SDS011;71975;47.068;15.408;2024-01-06T21:11:00;2.30;;;0.77;;
1693;SDS011;71975;47.068;15.408;2024-01-06T21:16:04;1.37;;;0.57;;
1693;SDS011;71975;47.068;15.408;2024-01-06T21:21:07;1.37;;;0.73;;
1693;SDS011;71975;47.068;15.408;2024-01-06T21:26:10;0.97;;;0.60;;
1693;SDS011;71975;47.068;15.408;2024-01-06T21:31:15;1.33;;;0.63;;
1693;SDS011;71975;47.068;15.408;2024-01-06T21:36:20;20.87;;;12.37;;
1693;SDS011;71975;47.068;15.408;2024-01-06T21:41:23;3.90;;;2.40;;
1693;SDS011;71975;47.068;15.408;2024-01-06T21:46:27;2.00;;;1.37;;
1693;SDS011;71975;47.068;15.408;2024-01-06T21:51:30;0.90;;;0.50;;
1693;SDS011;71975;47.068;15.408;2024-01-06T21:56:33;0.50;;;0.37;;
1693;SDS011;71975;47.068;15.408;2024-01-06T22:01:38;2.77;;;1.70;;
1693;SDS011;71975;47.068;15.408;2024-01-06T22:06:41;6.37;;;4.10;;
1693;SDS011;71975;47.068;15.408;2024-01-06T22:11:45;0.70;;;0.60;;
1693;SDS011;71975;47.068;15.408;2024-01-06T22:16:49;1.47;;;0.60;;
1693;SDS011;71975;47.068;15.408;2024-01-06T22:21:52;0.80;;;0.57;;
1693;SDS011;71975;47.068;15.408;2024-01-06T22:26:55;0.90;;;0.80;;
1693;SDS011;71975;47.068;15.408;2024-01-06T22:32:00;4.07;;;1.60;;
1693;SDS011;71975;47.068;15.408;2024-01-06T22:37:03;1.77;;;0.60;;
1693;SDS011;71975;47.068;15.408;2024-01-06T22:42:06;1.50;;;0.80;;
1693;SDS011;71975;47.068;15.408;2024-01-06T22:47:11;0.77;;;0.40;;
1693;SDS011;71975;47.068;15.408;2024-01-06T22:52:14;1.03;;;0.77;;
1693;SDS011;71975;47.068;15.408;2024-01-06T22:57:17;1.33;;;0.70;;
1693;SDS011;71975;47.068;15.408;2024-01-06T23:02:21;0.70;;;0.50;;
1693;SDS011;71975;47.068;15.408;2024-01-06T23:07:24;1.53;;;0.50;;
1693;SDS011;71975;47.068;15.408;2024-01-06T23:12:27;0.80;;;0.60;;
1693;SDS011;71975;47.068;15.408;2024-01-06T23:17:31;0.90;;;0.50;;
1693;SDS011;71975;47.068;15.408;2024-01-06T23:22:34;0.87;;;0.53;;
1693;SDS011;71975;47.068;15.408;2024-01-06T23:27:37;0.60;;;0.33;;
1693;SDS011;71975;47.068;15.408;2024-01-06T23:32:42;0.87;;;0.70;;
1693;SDS011;71975;47.068;15.408;2024-01-06T23:37:45;2.53;;;1.80;;
1693;SDS011;71975;47.068;15.408;2024-01-06T23:42:51;0.60;;;0.30;;
1693;SDS011;71975;47.068;15.408;2024-01-06T23:47:56;1.43;;;0.40;;
1693;SDS011;71975;47.068;15.408;2024-01-06T23:52:59;0.83;;;0.53;;
1693;SDS011;71975;47.068;15.408;2024-01-06T23:58:02;0.60;;;0.40;;
